createdAt,value
2023-05-17T00:02:01.231Z,12.70
2023-05-17T00:07:03.089Z,12.80
2023-05-17T00:12:05.368Z,12.70
2023-05-17T00:17:07.209Z,12.70
2023-05-17T00:22:09.104Z,12.70
2023-05-17T00:27:10.988Z,12.70
2023-05-17T00:32:12.842Z,12.70
2023-05-17T00:37:14.749Z,12.70
2023-05-17T00:42:16.513Z,12.60
2023-05-17T00:47:18.409Z,12.60
2023-05-17T00:52:20.193Z,12.60
2023-05-17T00:57:22.619Z,12.50
2023-05-17T01:02:24.731Z,12.60
2023-05-17T01:07:26.629Z,12.50
2023-05-17T01:12:31.105Z,12.50
2023-05-17T01:17:44.713Z,12.50
2023-05-17T01:23:24.294Z,12.50
2023-05-17T01:28:27.504Z,12.40
2023-05-17T01:33:31.277Z,12.40
2023-05-17T01:38:33.197Z,12.40
2023-05-17T01:43:59.313Z,12.30
2023-05-17T01:49:23.363Z,12.30
2023-05-17T01:54:36.990Z,12.30
2023-05-17T01:59:39.636Z,12.20
2023-05-17T02:04:41.491Z,12.20
2023-05-17T02:09:43.353Z,12.20
2023-05-17T02:14:45.123Z,12.20
2023-05-17T02:19:46.901Z,12.20
2023-05-17T02:24:49.010Z,12.20
2023-05-17T02:29:50.956Z,12.20
2023-05-17T02:34:52.710Z,12.20
2023-05-17T02:39:54.474Z,12.20
2023-05-17T02:44:58.029Z,12.20
2023-05-17T02:50:00.034Z,12.20
2023-05-17T02:55:02.229Z,12.20
2023-05-17T03:00:05.228Z,12.20
2023-05-17T03:05:08.342Z,12.20
2023-05-17T03:10:10.543Z,12.20
2023-05-17T03:15:12.887Z,12.20
2023-05-17T03:20:14.745Z,12.10
2023-05-17T03:25:16.748Z,12.20
2023-05-17T03:30:18.886Z,12.20
2023-05-17T03:35:20.729Z,12.20
2023-05-17T03:40:22.942Z,12.20
2023-05-17T03:45:24.773Z,12.00
2023-05-17T03:50:26.683Z,12.00
2023-05-17T03:55:28.846Z,12.10
2023-05-17T04:00:30.841Z,12.50
2023-05-17T04:05:32.903Z,13.00
2023-05-17T04:10:34.941Z,13.10
2023-05-17T04:15:37.104Z,12.80
2023-05-17T04:20:38.868Z,12.80
2023-05-17T04:25:40.867Z,12.70
2023-05-17T04:30:47.661Z,12.90
2023-05-17T04:35:51.277Z,12.80
2023-05-17T04:40:53.046Z,13.00
2023-05-17T04:45:58.508Z,13.40
2023-05-17T04:51:06.950Z,14.20
2023-05-17T04:56:08.722Z,13.70
2023-05-17T05:01:10.859Z,13.80
2023-05-17T05:06:12.668Z,13.80
2023-05-17T05:11:14.433Z,13.70
2023-05-17T05:16:16.406Z,14.00
2023-05-17T05:21:18.417Z,13.70
2023-05-17T05:26:20.366Z,13.50
2023-05-17T05:31:22.178Z,13.90
2023-05-17T05:36:23.969Z,14.50
2023-05-17T05:41:25.725Z,15.30
2023-05-17T05:46:27.580Z,16.10
2023-05-17T05:51:31.954Z,18.00
2023-05-17T05:56:33.784Z,17.10
2023-05-17T06:01:35.681Z,17.80
2023-05-17T06:06:37.531Z,16.90
2023-05-17T06:11:39.796Z,16.10
2023-05-17T06:16:41.859Z,15.80
2023-05-17T06:21:44.116Z,15.70
2023-05-17T06:26:47.187Z,15.70
2023-05-17T06:31:48.955Z,16.00
2023-05-17T06:36:50.749Z,16.90
2023-05-17T06:41:52.565Z,17.30
2023-05-17T06:46:54.519Z,18.40
2023-05-17T06:52:05.027Z,17.60
2023-05-17T06:57:07.198Z,17.30
2023-05-17T07:02:09.277Z,16.90
2023-05-17T07:07:11.676Z,16.50
2023-05-17T07:12:16.042Z,16.50
2023-05-17T07:17:20.863Z,17.40
2023-05-17T07:22:22.742Z,19.40
2023-05-17T07:27:24.477Z,19.50
2023-05-17T07:32:26.279Z,20.60
2023-05-17T07:37:28.178Z,18.30
2023-05-17T07:42:30.010Z,19.40
2023-05-17T07:47:32.063Z,18.20
2023-05-17T07:52:34.033Z,17.50
2023-05-17T07:57:35.897Z,18.40
2023-05-17T08:02:37.721Z,18.20
2023-05-17T08:07:39.803Z,17.30
2023-05-17T08:12:41.653Z,16.60
2023-05-17T08:17:43.548Z,17.20
2023-05-17T08:22:45.532Z,17.10
2023-05-17T08:27:47.512Z,17.40
2023-05-17T08:32:49.327Z,18.20
2023-05-17T08:37:51.171Z,18.80
2023-05-17T08:42:53.142Z,20.30
2023-05-17T08:47:56.189Z,19.30
2023-05-17T08:52:58.678Z,21.50
2023-05-17T08:58:01.286Z,19.40
2023-05-17T09:03:03.179Z,19.60
2023-05-17T09:08:06.117Z,19.60
2023-05-17T09:13:08.159Z,17.80
2023-05-17T09:18:13.566Z,16.90
2023-05-17T09:23:20.992Z,17.10
2023-05-17T09:28:23.570Z,18.10
2023-05-17T09:33:25.876Z,18.40
2023-05-17T09:38:28.001Z,17.90
2023-05-17T09:43:30.970Z,17.30
2023-05-17T09:48:32.937Z,17.80
2023-05-17T09:53:42.377Z,20.00
2023-05-17T09:58:44.671Z,20.10
2023-05-17T10:03:46.709Z,20.30
2023-05-17T10:08:56.111Z,20.00
2023-05-17T10:14:07.641Z,19.80
2023-05-17T10:19:14.257Z,18.40
2023-05-17T10:24:16.857Z,18.30
2023-05-17T10:29:22.012Z,17.60
2023-05-17T10:34:25.940Z,17.80
2023-05-17T10:39:28.021Z,17.00
2023-05-17T10:44:33.929Z,17.40
2023-05-17T10:49:39.514Z,17.20
2023-05-17T10:54:43.297Z,16.80
2023-05-17T10:59:59.336Z,16.70
2023-05-17T11:05:02.564Z,17.00
2023-05-17T11:10:12.109Z,17.80
2023-05-17T11:15:17.945Z,18.30
2023-05-17T11:20:26.291Z,17.60
2023-05-17T11:25:36.417Z,17.50
2023-05-17T11:30:43.613Z,17.70
2023-05-17T11:35:45.729Z,18.10
2023-05-17T11:40:49.577Z,18.00
2023-05-17T11:45:53.804Z,17.90
2023-05-17T11:50:56.825Z,17.80
2023-05-17T11:56:04.755Z,17.60
2023-05-17T12:01:06.825Z,17.50
2023-05-17T12:06:09.780Z,17.50
2023-05-17T12:11:14.786Z,17.20
2023-05-17T12:16:18.276Z,17.20
2023-05-17T12:21:21.619Z,17.30
2023-05-17T12:26:23.995Z,17.50
2023-05-17T12:31:34.452Z,17.70
2023-05-17T12:36:39.504Z,17.90
2023-05-17T12:41:43.248Z,17.70
2023-05-17T12:46:46.000Z,17.50
2023-05-17T12:51:49.384Z,17.50
2023-05-17T12:56:51.614Z,17.10
2023-05-17T13:01:56.554Z,16.90
2023-05-17T13:07:00.540Z,16.40
2023-05-17T13:12:06.805Z,16.40
2023-05-17T13:17:11.766Z,16.80
2023-05-17T13:22:15.386Z,16.50
2023-05-17T13:27:17.263Z,16.60
2023-05-17T13:32:19.272Z,16.70
2023-05-17T13:37:21.527Z,16.90
2023-05-17T13:42:23.797Z,17.20
2023-05-17T13:47:26.140Z,17.60
2023-05-17T13:52:28.201Z,16.90
2023-05-17T13:57:29.994Z,16.80
2023-05-17T14:02:31.980Z,16.40
2023-05-17T14:07:33.745Z,16.00
2023-05-17T14:12:36.719Z,15.90
2023-05-17T14:17:38.554Z,16.10
2023-05-17T14:22:41.570Z,16.10
2023-05-17T14:27:43.377Z,16.30
2023-05-17T14:32:45.756Z,16.20
2023-05-17T14:37:47.555Z,16.10
2023-05-17T14:42:49.370Z,16.30
2023-05-17T14:47:51.851Z,16.10
2023-05-17T14:52:53.680Z,15.70
2023-05-17T14:57:58.076Z,15.60
2023-05-17T15:02:59.992Z,15.80
2023-05-17T15:08:02.244Z,15.90
2023-05-17T15:13:04.310Z,16.10
2023-05-17T15:18:06.766Z,15.70
2023-05-17T15:23:08.698Z,15.60
2023-05-17T15:28:10.631Z,15.60
2023-05-17T15:33:12.532Z,15.60
2023-05-17T15:38:14.378Z,15.50
2023-05-17T15:43:16.241Z,15.40
2023-05-17T15:48:18.316Z,15.30
2023-05-17T15:53:20.118Z,15.30
2023-05-17T15:58:28.104Z,15.30
2023-05-17T16:03:29.985Z,15.40
2023-05-17T16:08:32.052Z,15.30
2023-05-17T16:13:33.800Z,15.10
2023-05-17T16:18:35.727Z,14.90
2023-05-17T16:23:37.844Z,14.80
2023-05-17T16:28:39.596Z,14.70
2023-05-17T16:33:42.406Z,14.50
2023-05-17T16:38:44.220Z,14.40
2023-05-17T16:43:46.092Z,14.30
2023-05-17T16:48:47.996Z,14.10
2023-05-17T16:53:49.984Z,14.10
2023-05-17T16:58:52.557Z,14.00
2023-05-17T17:03:56.679Z,13.90
2023-05-17T17:08:58.789Z,13.70
2023-05-17T17:14:00.696Z,13.60
2023-05-17T17:19:02.702Z,13.60
2023-05-17T17:24:08.107Z,13.40
2023-05-17T17:29:10.350Z,13.30
2023-05-17T17:34:12.070Z,13.20
2023-05-17T17:39:14.545Z,13.10
2023-05-17T17:44:16.429Z,13.10
2023-05-17T17:49:18.503Z,13.00
2023-05-17T17:54:20.326Z,12.90
2023-05-17T17:59:22.164Z,12.80
2023-05-17T18:04:24.204Z,12.80
2023-05-17T18:09:25.992Z,12.70
2023-05-17T18:14:27.743Z,12.60
2023-05-17T18:19:29.513Z,12.70
2023-05-17T18:24:32.013Z,12.50
2023-05-17T18:29:33.796Z,12.40
2023-05-17T18:34:36.057Z,12.30
2023-05-17T18:39:37.848Z,12.20
2023-05-17T18:44:39.644Z,12.10
2023-05-17T18:49:48.099Z,12.10
2023-05-17T18:54:50.213Z,11.90
2023-05-17T18:59:52.114Z,11.80
2023-05-17T19:04:53.876Z,11.70
2023-05-17T19:09:55.613Z,11.60
2023-05-17T19:14:57.379Z,11.60
2023-05-17T19:19:59.313Z,11.40
2023-05-17T19:25:01.153Z,11.30
2023-05-17T19:30:03.085Z,11.10
2023-05-17T19:35:05.667Z,10.80
2023-05-17T19:40:08.136Z,10.70
2023-05-17T19:45:14.514Z,10.50
2023-05-17T19:50:16.857Z,10.40
2023-05-17T19:55:22.210Z,10.20
2023-05-17T20:00:24.354Z,10.00
2023-05-17T20:05:27.221Z,9.60
2023-05-17T20:10:31.542Z,9.40
2023-05-17T20:15:33.622Z,9.30
2023-05-17T20:20:35.484Z,9.10
2023-05-17T20:25:38.025Z,9.00
2023-05-17T20:30:44.677Z,8.90
2023-05-17T20:35:46.622Z,9.30
2023-05-17T20:40:48.553Z,9.30
2023-05-17T20:45:53.758Z,9.20
2023-05-17T20:50:55.642Z,9.10
2023-05-17T20:55:58.285Z,9.00
2023-05-17T21:01:01.164Z,9.00
2023-05-17T21:06:05.133Z,8.70
2023-05-17T21:11:06.949Z,8.70
2023-05-17T21:16:09.102Z,8.70
2023-05-17T21:21:12.042Z,8.70
2023-05-17T21:26:14.201Z,8.60
2023-05-17T21:31:16.072Z,8.60
2023-05-17T21:36:17.856Z,8.70
2023-05-17T21:41:20.406Z,8.40
2023-05-17T21:46:22.295Z,8.40
2023-05-17T21:51:24.110Z,8.10
2023-05-17T21:56:25.981Z,8.00
2023-05-17T22:01:27.962Z,8.00
2023-05-17T22:06:29.754Z,7.90
2023-05-17T22:11:31.617Z,7.70
2023-05-17T22:16:34.791Z,7.50
2023-05-17T22:21:36.619Z,7.40
2023-05-17T22:26:39.053Z,7.30
2023-05-17T22:31:40.837Z,7.20
2023-05-17T22:36:43.290Z,7.40
2023-05-17T22:41:45.309Z,7.30
2023-05-17T22:46:47.773Z,7.10
2023-05-17T22:51:49.576Z,7.00
2023-05-17T22:56:51.367Z,7.00
2023-05-17T23:01:53.401Z,6.90
2023-05-17T23:07:01.937Z,7.00
2023-05-17T23:12:05.647Z,7.00
2023-05-17T23:17:08.598Z,7.00
2023-05-17T23:22:10.802Z,7.10
2023-05-17T23:27:12.724Z,7.00
2023-05-17T23:32:15.138Z,7.00
2023-05-17T23:37:17.336Z,7.00
2023-05-17T23:42:20.330Z,6.90
2023-05-17T23:47:22.346Z,6.80
2023-05-17T23:52:24.486Z,6.70
2023-05-17T23:57:26.352Z,6.60
